sensor_id;sensor_type;location;lat;lon;timestamp;temperature;humidity
909;DHT22;441;51.192;6.788;2023-07-31T00:01:56;22.00;99.90
909;DHT22;441;51.192;6.788;2023-07-31T00:04:22;22.00;99.90
909;DHT22;441;51.192;6.788;2023-07-31T00:06:51;22.00;99.90
909;DHT22;441;51.192;6.788;2023-07-31T00:09:17;22.00;99.90
909;DHT22;441;51.192;6.788;2023-07-31T00:11:45;22.00;99.90
909;DHT22;441;51.192;6.788;2023-07-31T00:14:11;22.00;99.90
909;DHT22;441;51.192;6.788;2023-07-31T00:16:38;21.90;99.90
909;DHT22;441;51.192;6.788;2023-07-31T00:19:05;21.90;99.90
909;DHT22;441;51.192;6.788;2023-07-31T00:21:32;21.90;99.90
909;DHT22;441;51.192;6.788;2023-07-31T00:24:00;21.90;99.90
909;DHT22;441;51.192;6.788;2023-07-31T00:26:27;21.90;99.90
909;DHT22;441;51.192;6.788;2023-07-31T00:28:54;21.90;99.90
909;DHT22;441;51.192;6.788;2023-07-31T00:31:21;22.00;99.90
909;DHT22;441;51.192;6.788;2023-07-31T00:33:48;21.90;99.90
909;DHT22;441;51.192;6.788;2023-07-31T00:36:15;21.90;99.90
909;DHT22;441;51.192;6.788;2023-07-31T00:38:43;21.90;99.90
909;DHT22;441;51.192;6.788;2023-07-31T00:41:11;21.90;99.90
909;DHT22;441;51.192;6.788;2023-07-31T00:43:38;21.90;99.90
909;DHT22;441;51.192;6.788;2023-07-31T00:46:05;21.90;99.90
909;DHT22;441;51.192;6.788;2023-07-31T00:48:34;21.90;99.90
909;DHT22;441;51.192;6.788;2023-07-31T00:51:01;21.90;99.90
909;DHT22;441;51.192;6.788;2023-07-31T00:53:28;21.90;99.90
909;DHT22;441;51.192;6.788;2023-07-31T00:55:55;21.80;99.90
909;DHT22;441;51.192;6.788;2023-07-31T00:58:24;21.80;99.90
909;DHT22;441;51.192;6.788;2023-07-31T01:00:51;21.80;99.90
909;DHT22;441;51.192;6.788;2023-07-31T01:03:18;21.80;99.90
909;DHT22;441;51.192;6.788;2023-07-31T01:06:01;21.80;99.90
909;DHT22;441;51.192;6.788;2023-07-31T01:08:37;21.80;99.90
909;DHT22;441;51.192;6.788;2023-07-31T01:11:14;21.80;99.90
909;DHT22;441;51.192;6.788;2023-07-31T01:13:44;21.70;99.90
909;DHT22;441;51.192;6.788;2023-07-31T01:16:12;21.70;99.90
909;DHT22;441;51.192;6.788;2023-07-31T01:18:39;21.80;99.90
909;DHT22;441;51.192;6.788;2023-07-31T01:21:20;21.80;99.90
909;DHT22;441;51.192;6.788;2023-07-31T01:24:07;21.70;99.90
909;DHT22;441;51.192;6.788;2023-07-31T01:26:38;21.70;99.90
909;DHT22;441;51.192;6.788;2023-07-31T01:29:10;21.70;99.90
909;DHT22;441;51.192;6.788;2023-07-31T01:31:39;21.70;99.90
909;DHT22;441;51.192;6.788;2023-07-31T01:34:09;21.70;99.90
909;DHT22;441;51.192;6.788;2023-07-31T01:36:36;21.70;99.90
909;DHT22;441;51.192;6.788;2023-07-31T01:39:03;21.70;99.90
909;DHT22;441;51.192;6.788;2023-07-31T01:41:30;21.70;99.90
909;DHT22;441;51.192;6.788;2023-07-31T01:43:58;21.70;99.90
909;DHT22;441;51.192;6.788;2023-07-31T01:46:25;21.70;99.90
909;DHT22;441;51.192;6.788;2023-07-31T01:48:52;21.70;99.90
909;DHT22;441;51.192;6.788;2023-07-31T01:51:19;21.60;99.90
909;DHT22;441;51.192;6.788;2023-07-31T01:53:46;21.70;99.90
909;DHT22;441;51.192;6.788;2023-07-31T01:56:13;21.60;99.90
909;DHT22;441;51.192;6.788;2023-07-31T01:58:40;21.60;99.90
909;DHT22;441;51.192;6.788;2023-07-31T02:01:08;21.60;99.90
909;DHT22;441;51.192;6.788;2023-07-31T02:03:35;21.60;99.90
909;DHT22;441;51.192;6.788;2023-07-31T02:06:02;21.60;99.90
909;DHT22;441;51.192;6.788;2023-07-31T02:08:29;21.60;99.90
909;DHT22;441;51.192;6.788;2023-07-31T02:10:56;21.60;99.90
909;DHT22;441;51.192;6.788;2023-07-31T02:13:23;21.60;99.90
909;DHT22;441;51.192;6.788;2023-07-31T02:15:49;21.60;99.90
909;DHT22;441;51.192;6.788;2023-07-31T02:18:18;21.60;99.90
909;DHT22;441;51.192;6.788;2023-07-31T02:20:49;21.60;99.90
909;DHT22;441;51.192;6.788;2023-07-31T02:23:16;21.60;99.90
909;DHT22;441;51.192;6.788;2023-07-31T02:25:43;21.60;99.90
909;DHT22;441;51.192;6.788;2023-07-31T02:28:10;21.60;99.90
909;DHT22;441;51.192;6.788;2023-07-31T02:30:37;21.60;99.90
909;DHT22;441;51.192;6.788;2023-07-31T02:33:04;21.60;99.90
909;DHT22;441;51.192;6.788;2023-07-31T02:35:32;21.60;99.90
909;DHT22;441;51.192;6.788;2023-07-31T02:37:59;21.60;99.90
909;DHT22;441;51.192;6.788;2023-07-31T02:40:26;21.60;99.90
909;DHT22;441;51.192;6.788;2023-07-31T02:42:53;21.60;99.90
909;DHT22;441;51.192;6.788;2023-07-31T02:45:20;21.60;99.90
909;DHT22;441;51.192;6.788;2023-07-31T02:47:47;21.60;99.90
909;DHT22;441;51.192;6.788;2023-07-31T02:50:14;21.60;99.90
909;DHT22;441;51.192;6.788;2023-07-31T02:52:42;21.60;99.90
909;DHT22;441;51.192;6.788;2023-07-31T02:55:09;21.60;99.90
909;DHT22;441;51.192;6.788;2023-07-31T02:57:36;21.60;99.90
909;DHT22;441;51.192;6.788;2023-07-31T03:00:03;21.60;99.90
909;DHT22;441;51.192;6.788;2023-07-31T03:02:31;21.60;99.90
909;DHT22;441;51.192;6.788;2023-07-31T03:04:58;21.60;99.90
909;DHT22;441;51.192;6.788;2023-07-31T03:07:25;21.60;99.90
909;DHT22;441;51.192;6.788;2023-07-31T03:09:54;21.60;99.90
909;DHT22;441;51.192;6.788;2023-07-31T03:12:21;21.60;99.90
909;DHT22;441;51.192;6.788;2023-07-31T03:14:48;21.60;99.90
909;DHT22;441;51.192;6.788;2023-07-31T03:17:15;21.60;99.90
909;DHT22;441;51.192;6.788;2023-07-31T03:19:42;21.60;99.90
909;DHT22;441;51.192;6.788;2023-07-31T03:22:09;21.60;99.90
909;DHT22;441;51.192;6.788;2023-07-31T03:24:35;21.60;99.90
909;DHT22;441;51.192;6.788;2023-07-31T03:27:05;21.60;99.90
909;DHT22;441;51.192;6.788;2023-07-31T03:29:31;21.60;99.90
909;DHT22;441;51.192;6.788;2023-07-31T03:31:58;21.60;99.90
909;DHT22;441;51.192;6.788;2023-07-31T03:34:26;21.60;99.90
909;DHT22;441;51.192;6.788;2023-07-31T03:36:53;21.60;99.90
909;DHT22;441;51.192;6.788;2023-07-31T03:39:20;21.60;99.90
909;DHT22;441;51.192;6.788;2023-07-31T03:41:47;21.50;99.90
909;DHT22;441;51.192;6.788;2023-07-31T03:44:15;21.60;99.90
909;DHT22;441;51.192;6.788;2023-07-31T03:46:42;21.60;99.90
909;DHT22;441;51.192;6.788;2023-07-31T03:49:09;21.50;99.90
909;DHT22;441;51.192;6.788;2023-07-31T03:51:36;21.50;99.90
909;DHT22;441;51.192;6.788;2023-07-31T03:54:03;21.50;99.90
909;DHT22;441;51.192;6.788;2023-07-31T03:56:30;21.50;99.90
909;DHT22;441;51.192;6.788;2023-07-31T03:58:56;21.50;99.90
909;DHT22;441;51.192;6.788;2023-07-31T04:01:26;21.50;99.90
909;DHT22;441;51.192;6.788;2023-07-31T04:03:53;21.50;99.90
909;DHT22;441;51.192;6.788;2023-07-31T04:06:20;21.50;99.90
909;DHT22;441;51.192;6.788;2023-07-31T04:08:47;21.50;99.90
909;DHT22;441;51.192;6.788;2023-07-31T04:11:13;21.50;99.90
909;DHT22;441;51.192;6.788;2023-07-31T04:13:40;21.50;99.90
909;DHT22;441;51.192;6.788;2023-07-31T04:16:07;21.50;99.90
909;DHT22;441;51.192;6.788;2023-07-31T04:18:35;21.50;99.90
909;DHT22;441;51.192;6.788;2023-07-31T04:21:02;21.50;99.90
909;DHT22;441;51.192;6.788;2023-07-31T04:23:29;21.50;99.90
909;DHT22;441;51.192;6.788;2023-07-31T04:25:56;21.50;99.90
909;DHT22;441;51.192;6.788;2023-07-31T04:28:23;21.50;99.90
909;DHT22;441;51.192;6.788;2023-07-31T04:30:51;21.50;99.90
909;DHT22;441;51.192;6.788;2023-07-31T04:33:18;21.60;99.90
909;DHT22;441;51.192;6.788;2023-07-31T04:35:50;21.60;99.90
909;DHT22;441;51.192;6.788;2023-07-31T04:38:18;21.60;99.90
909;DHT22;441;51.192;6.788;2023-07-31T04:40:45;21.60;99.90
909;DHT22;441;51.192;6.788;2023-07-31T04:43:12;21.60;99.90
909;DHT22;441;51.192;6.788;2023-07-31T04:45:39;21.60;99.90
909;DHT22;441;51.192;6.788;2023-07-31T04:48:06;21.60;99.90
909;DHT22;441;51.192;6.788;2023-07-31T04:50:33;21.60;99.90
909;DHT22;441;51.192;6.788;2023-07-31T04:53:01;21.60;99.90
909;DHT22;441;51.192;6.788;2023-07-31T04:55:28;21.60;99.90
909;DHT22;441;51.192;6.788;2023-07-31T04:57:55;21.60;99.90
909;DHT22;441;51.192;6.788;2023-07-31T05:00:21;21.60;99.90
909;DHT22;441;51.192;6.788;2023-07-31T05:02:48;21.60;99.90
909;DHT22;441;51.192;6.788;2023-07-31T05:05:15;21.60;99.90
909;DHT22;441;51.192;6.788;2023-07-31T05:07:42;21.60;99.90
909;DHT22;441;51.192;6.788;2023-07-31T05:10:10;21.70;99.90
909;DHT22;441;51.192;6.788;2023-07-31T05:12:37;21.80;99.90
909;DHT22;441;51.192;6.788;2023-07-31T05:15:07;21.80;99.90
909;DHT22;441;51.192;6.788;2023-07-31T05:17:34;22.00;99.90
909;DHT22;441;51.192;6.788;2023-07-31T05:20:01;22.00;99.90
909;DHT22;441;51.192;6.788;2023-07-31T05:22:28;22.20;99.90
909;DHT22;441;51.192;6.788;2023-07-31T05:24:55;22.30;99.90
909;DHT22;441;51.192;6.788;2023-07-31T05:29:54;22.60;99.90
909;DHT22;441;51.192;6.788;2023-07-31T05:32:22;22.80;99.90
909;DHT22;441;51.192;6.788;2023-07-31T05:34:51;22.90;99.90
909;DHT22;441;51.192;6.788;2023-07-31T05:37:18;23.10;99.90
909;DHT22;441;51.192;6.788;2023-07-31T05:39:45;23.20;99.90
909;DHT22;441;51.192;6.788;2023-07-31T05:42:13;23.30;99.90
909;DHT22;441;51.192;6.788;2023-07-31T05:44:41;23.40;99.90
909;DHT22;441;51.192;6.788;2023-07-31T05:47:10;23.60;99.90
909;DHT22;441;51.192;6.788;2023-07-31T05:49:37;23.70;99.90
909;DHT22;441;51.192;6.788;2023-07-31T05:52:04;23.70;99.90
909;DHT22;441;51.192;6.788;2023-07-31T05:54:32;23.90;99.90
909;DHT22;441;51.192;6.788;2023-07-31T05:56:59;24.00;99.90
909;DHT22;441;51.192;6.788;2023-07-31T05:59:26;24.10;99.90
909;DHT22;441;51.192;6.788;2023-07-31T06:01:53;24.10;99.90
909;DHT22;441;51.192;6.788;2023-07-31T06:04:21;24.20;99.90
909;DHT22;441;51.192;6.788;2023-07-31T06:06:51;24.30;99.90
909;DHT22;441;51.192;6.788;2023-07-31T06:09:17;24.30;99.90
909;DHT22;441;51.192;6.788;2023-07-31T06:11:45;24.30;99.90
909;DHT22;441;51.192;6.788;2023-07-31T06:14:12;24.40;99.90
909;DHT22;441;51.192;6.788;2023-07-31T06:16:39;24.50;99.90
909;DHT22;441;51.192;6.788;2023-07-31T06:19:06;24.50;99.90
909;DHT22;441;51.192;6.788;2023-07-31T06:21:35;24.50;99.90
909;DHT22;441;51.192;6.788;2023-07-31T06:24:03;24.50;99.90
909;DHT22;441;51.192;6.788;2023-07-31T06:26:30;24.50;99.90
909;DHT22;441;51.192;6.788;2023-07-31T06:28:56;24.60;99.90
909;DHT22;441;51.192;6.788;2023-07-31T06:31:23;24.60;99.90
909;DHT22;441;51.192;6.788;2023-07-31T06:33:51;24.70;99.90
909;DHT22;441;51.192;6.788;2023-07-31T06:36:18;24.70;99.90
909;DHT22;441;51.192;6.788;2023-07-31T06:50:08;24.70;99.90
909;DHT22;441;51.192;6.788;2023-07-31T06:52:35;24.80;99.90
909;DHT22;441;51.192;6.788;2023-07-31T06:55:03;24.90;99.90
909;DHT22;441;51.192;6.788;2023-07-31T06:57:30;24.90;99.90
909;DHT22;441;51.192;6.788;2023-07-31T06:59:57;24.90;99.90
909;DHT22;441;51.192;6.788;2023-07-31T07:02:24;24.90;99.90
909;DHT22;441;51.192;6.788;2023-07-31T07:04:50;24.90;99.90
909;DHT22;441;51.192;6.788;2023-07-31T07:07:19;25.00;99.90
909;DHT22;441;51.192;6.788;2023-07-31T07:09:46;24.90;99.90
909;DHT22;441;51.192;6.788;2023-07-31T07:12:13;24.90;99.90
909;DHT22;441;51.192;6.788;2023-07-31T07:14:40;24.90;99.90
909;DHT22;441;51.192;6.788;2023-07-31T07:17:07;24.80;99.90
909;DHT22;441;51.192;6.788;2023-07-31T07:19:33;24.80;99.90
909;DHT22;441;51.192;6.788;2023-07-31T07:22:00;24.90;99.90
909;DHT22;441;51.192;6.788;2023-07-31T07:24:29;25.00;99.90
909;DHT22;441;51.192;6.788;2023-07-31T07:26:56;25.00;99.90
909;DHT22;441;51.192;6.788;2023-07-31T07:29:23;25.00;99.90
909;DHT22;441;51.192;6.788;2023-07-31T07:31:50;25.00;99.90
909;DHT22;441;51.192;6.788;2023-07-31T07:34:16;25.10;99.90
909;DHT22;441;51.192;6.788;2023-07-31T07:36:44;25.00;99.90
909;DHT22;441;51.192;6.788;2023-07-31T07:39:11;25.00;99.90
909;DHT22;441;51.192;6.788;2023-07-31T07:41:39;25.10;99.90
909;DHT22;441;51.192;6.788;2023-07-31T07:44:08;25.00;99.90
909;DHT22;441;51.192;6.788;2023-07-31T07:46:35;25.10;99.90
909;DHT22;441;51.192;6.788;2023-07-31T07:49:02;25.00;99.90
909;DHT22;441;51.192;6.788;2023-07-31T07:51:29;25.00;99.90
909;DHT22;441;51.192;6.788;2023-07-31T07:53:57;25.00;99.90
909;DHT22;441;51.192;6.788;2023-07-31T07:56:25;25.00;99.90
909;DHT22;441;51.192;6.788;2023-07-31T07:58:53;25.00;99.90
909;DHT22;441;51.192;6.788;2023-07-31T08:01:20;25.00;99.90
909;DHT22;441;51.192;6.788;2023-07-31T08:03:47;25.00;99.90
909;DHT22;441;51.192;6.788;2023-07-31T08:06:15;25.00;99.90
909;DHT22;441;51.192;6.788;2023-07-31T08:08:41;24.90;99.90
909;DHT22;441;51.192;6.788;2023-07-31T08:11:08;25.00;99.90
909;DHT22;441;51.192;6.788;2023-07-31T08:13:35;25.00;99.90
909;DHT22;441;51.192;6.788;2023-07-31T08:16:05;25.00;99.90
909;DHT22;441;51.192;6.788;2023-07-31T08:18:32;25.00;99.90
909;DHT22;441;51.192;6.788;2023-07-31T08:20:59;25.00;99.90
909;DHT22;441;51.192;6.788;2023-07-31T08:23:25;25.00;99.90
909;DHT22;441;51.192;6.788;2023-07-31T08:25:52;24.90;99.90
909;DHT22;441;51.192;6.788;2023-07-31T08:28:19;25.00;99.90
909;DHT22;441;51.192;6.788;2023-07-31T08:30:46;25.00;99.90
909;DHT22;441;51.192;6.788;2023-07-31T08:33:14;25.00;99.90
909;DHT22;441;51.192;6.788;2023-07-31T08:35:41;25.10;99.90
909;DHT22;441;51.192;6.788;2023-07-31T08:38:08;25.10;99.90
909;DHT22;441;51.192;6.788;2023-07-31T08:40:36;25.10;99.90
909;DHT22;441;51.192;6.788;2023-07-31T08:43:03;25.00;99.90
909;DHT22;441;51.192;6.788;2023-07-31T08:45:31;25.00;99.90
909;DHT22;441;51.192;6.788;2023-07-31T08:47:59;25.00;99.90
909;DHT22;441;51.192;6.788;2023-07-31T08:50:27;25.00;99.90
909;DHT22;441;51.192;6.788;2023-07-31T08:52:54;25.00;99.90
909;DHT22;441;51.192;6.788;2023-07-31T08:55:21;25.10;99.90
909;DHT22;441;51.192;6.788;2023-07-31T08:57:51;25.10;99.90
909;DHT22;441;51.192;6.788;2023-07-31T09:00:18;25.10;99.90
909;DHT22;441;51.192;6.788;2023-07-31T09:02:52;25.10;99.90
909;DHT22;441;51.192;6.788;2023-07-31T09:05:21;25.20;99.90
909;DHT22;441;51.192;6.788;2023-07-31T09:07:50;25.10;99.90
909;DHT22;441;51.192;6.788;2023-07-31T09:10:18;25.10;99.90
909;DHT22;441;51.192;6.788;2023-07-31T09:12:45;24.90;99.90
909;DHT22;441;51.192;6.788;2023-07-31T09:15:12;24.90;99.90
909;DHT22;441;51.192;6.788;2023-07-31T09:17:39;24.90;99.90
909;DHT22;441;51.192;6.788;2023-07-31T09:20:16;24.90;99.90
909;DHT22;441;51.192;6.788;2023-07-31T09:22:44;24.90;99.90
909;DHT22;441;51.192;6.788;2023-07-31T09:25:16;24.90;99.90
909;DHT22;441;51.192;6.788;2023-07-31T09:27:48;25.00;99.90
909;DHT22;441;51.192;6.788;2023-07-31T09:30:15;24.90;99.90
909;DHT22;441;51.192;6.788;2023-07-31T09:32:42;25.00;99.90
909;DHT22;441;51.192;6.788;2023-07-31T09:35:20;25.00;99.90
909;DHT22;441;51.192;6.788;2023-07-31T09:37:51;25.00;99.90
909;DHT22;441;51.192;6.788;2023-07-31T09:40:30;24.90;99.90
909;DHT22;441;51.192;6.788;2023-07-31T09:42:58;24.90;99.90
909;DHT22;441;51.192;6.788;2023-07-31T09:45:25;25.00;99.90
909;DHT22;441;51.192;6.788;2023-07-31T09:47:53;24.90;99.90
909;DHT22;441;51.192;6.788;2023-07-31T09:50:21;25.00;99.90
909;DHT22;441;51.192;6.788;2023-07-31T09:52:48;25.00;99.90
909;DHT22;441;51.192;6.788;2023-07-31T09:55:16;25.00;99.90
909;DHT22;441;51.192;6.788;2023-07-31T09:57:47;25.00;99.90
909;DHT22;441;51.192;6.788;2023-07-31T10:00:15;25.00;99.90
909;DHT22;441;51.192;6.788;2023-07-31T10:02:45;25.00;99.90
909;DHT22;441;51.192;6.788;2023-07-31T10:05:13;25.00;99.90
909;DHT22;441;51.192;6.788;2023-07-31T10:07:42;24.90;99.90
909;DHT22;441;51.192;6.788;2023-07-31T10:10:09;25.00;99.90
909;DHT22;441;51.192;6.788;2023-07-31T10:12:37;25.00;99.90
909;DHT22;441;51.192;6.788;2023-07-31T10:15:06;25.00;99.90
909;DHT22;441;51.192;6.788;2023-07-31T10:17:35;25.00;99.90
909;DHT22;441;51.192;6.788;2023-07-31T10:20:03;25.00;99.90
909;DHT22;441;51.192;6.788;2023-07-31T10:22:31;25.10;99.90
909;DHT22;441;51.192;6.788;2023-07-31T10:24:59;25.10;99.90
909;DHT22;441;51.192;6.788;2023-07-31T10:27:26;25.10;99.90
909;DHT22;441;51.192;6.788;2023-07-31T10:29:56;25.10;99.90
909;DHT22;441;51.192;6.788;2023-07-31T10:32:26;25.10;99.90
909;DHT22;441;51.192;6.788;2023-07-31T10:34:55;25.10;99.90
909;DHT22;441;51.192;6.788;2023-07-31T10:37:26;25.10;99.90
909;DHT22;441;51.192;6.788;2023-07-31T10:40:02;25.10;99.90
909;DHT22;441;51.192;6.788;2023-07-31T10:42:31;25.10;99.90
909;DHT22;441;51.192;6.788;2023-07-31T10:45:00;25.10;99.90
909;DHT22;441;51.192;6.788;2023-07-31T10:47:29;25.10;99.90
909;DHT22;441;51.192;6.788;2023-07-31T10:50:18;25.20;99.90
909;DHT22;441;51.192;6.788;2023-07-31T10:52:49;25.10;99.90
909;DHT22;441;51.192;6.788;2023-07-31T10:55:30;25.20;99.90
909;DHT22;441;51.192;6.788;2023-07-31T10:58:06;25.10;99.90
909;DHT22;441;51.192;6.788;2023-07-31T11:00:33;25.20;99.90
909;DHT22;441;51.192;6.788;2023-07-31T11:03:03;25.10;99.90
909;DHT22;441;51.192;6.788;2023-07-31T11:05:44;25.10;99.90
909;DHT22;441;51.192;6.788;2023-07-31T11:08:13;25.20;99.90
909;DHT22;441;51.192;6.788;2023-07-31T11:10:40;25.20;99.90
909;DHT22;441;51.192;6.788;2023-07-31T11:13:07;25.20;99.90
909;DHT22;441;51.192;6.788;2023-07-31T11:15:34;25.30;99.90
909;DHT22;441;51.192;6.788;2023-07-31T11:18:02;25.30;99.90
909;DHT22;441;51.192;6.788;2023-07-31T11:20:31;25.40;99.90
909;DHT22;441;51.192;6.788;2023-07-31T11:23:00;25.40;99.90
909;DHT22;441;51.192;6.788;2023-07-31T11:25:29;25.40;99.90
909;DHT22;441;51.192;6.788;2023-07-31T11:27:56;25.40;99.90
909;DHT22;441;51.192;6.788;2023-07-31T11:30:23;25.50;99.90
909;DHT22;441;51.192;6.788;2023-07-31T11:32:50;25.50;99.90
909;DHT22;441;51.192;6.788;2023-07-31T11:35:19;25.60;99.90
909;DHT22;441;51.192;6.788;2023-07-31T11:37:46;25.60;99.90
909;DHT22;441;51.192;6.788;2023-07-31T11:40:14;25.60;99.90
909;DHT22;441;51.192;6.788;2023-07-31T11:42:41;25.60;99.90
909;DHT22;441;51.192;6.788;2023-07-31T11:45:09;25.70;99.90
909;DHT22;441;51.192;6.788;2023-07-31T11:47:37;25.70;99.90
909;DHT22;441;51.192;6.788;2023-07-31T11:50:05;25.60;99.90
909;DHT22;441;51.192;6.788;2023-07-31T11:52:38;25.60;99.90
909;DHT22;441;51.192;6.788;2023-07-31T11:55:08;25.60;99.90
909;DHT22;441;51.192;6.788;2023-07-31T11:57:37;25.70;99.90
909;DHT22;441;51.192;6.788;2023-07-31T12:00:08;25.60;99.90
909;DHT22;441;51.192;6.788;2023-07-31T12:02:36;25.60;99.90
909;DHT22;441;51.192;6.788;2023-07-31T12:05:05;25.50;99.90
909;DHT22;441;51.192;6.788;2023-07-31T12:07:47;25.50;99.90
909;DHT22;441;51.192;6.788;2023-07-31T12:10:28;25.50;99.90
909;DHT22;441;51.192;6.788;2023-07-31T12:13:00;25.50;99.90
909;DHT22;441;51.192;6.788;2023-07-31T12:15:33;25.40;99.90
909;DHT22;441;51.192;6.788;2023-07-31T12:18:01;25.40;99.90
909;DHT22;441;51.192;6.788;2023-07-31T12:20:30;25.40;99.90
909;DHT22;441;51.192;6.788;2023-07-31T12:22:58;25.40;99.90
909;DHT22;441;51.192;6.788;2023-07-31T12:25:32;25.40;99.90
909;DHT22;441;51.192;6.788;2023-07-31T12:28:04;25.40;99.90
909;DHT22;441;51.192;6.788;2023-07-31T12:30:33;25.40;99.90
909;DHT22;441;51.192;6.788;2023-07-31T12:33:04;25.40;99.90
909;DHT22;441;51.192;6.788;2023-07-31T12:35:36;25.40;99.90
909;DHT22;441;51.192;6.788;2023-07-31T12:38:04;25.30;99.90
909;DHT22;441;51.192;6.788;2023-07-31T12:40:31;25.30;99.90
909;DHT22;441;51.192;6.788;2023-07-31T12:43:01;25.30;99.90
909;DHT22;441;51.192;6.788;2023-07-31T12:45:29;25.20;99.90
909;DHT22;441;51.192;6.788;2023-07-31T12:47:56;25.20;99.90
909;DHT22;441;51.192;6.788;2023-07-31T12:50:23;25.30;99.90
909;DHT22;441;51.192;6.788;2023-07-31T12:52:51;25.30;99.90
909;DHT22;441;51.192;6.788;2023-07-31T12:55:19;25.30;99.90
909;DHT22;441;51.192;6.788;2023-07-31T12:57:46;25.30;99.90
909;DHT22;441;51.192;6.788;2023-07-31T13:00:14;25.30;99.90
909;DHT22;441;51.192;6.788;2023-07-31T13:02:41;25.40;99.90
909;DHT22;441;51.192;6.788;2023-07-31T13:05:08;25.40;99.90
909;DHT22;441;51.192;6.788;2023-07-31T13:07:35;25.40;99.90
909;DHT22;441;51.192;6.788;2023-07-31T13:10:02;25.50;99.90
909;DHT22;441;51.192;6.788;2023-07-31T13:12:31;25.60;99.90
909;DHT22;441;51.192;6.788;2023-07-31T13:14:58;25.70;99.90
909;DHT22;441;51.192;6.788;2023-07-31T13:17:24;25.70;99.90
909;DHT22;441;51.192;6.788;2023-07-31T13:19:52;25.70;99.90
909;DHT22;441;51.192;6.788;2023-07-31T13:22:19;25.80;99.90
909;DHT22;441;51.192;6.788;2023-07-31T13:24:46;25.80;99.90
909;DHT22;441;51.192;6.788;2023-07-31T13:27:13;25.80;99.90
909;DHT22;441;51.192;6.788;2023-07-31T13:29:44;25.90;99.90
909;DHT22;441;51.192;6.788;2023-07-31T13:32:11;25.90;99.90
909;DHT22;441;51.192;6.788;2023-07-31T13:34:38;26.00;99.90
909;DHT22;441;51.192;6.788;2023-07-31T13:37:05;26.10;99.90
909;DHT22;441;51.192;6.788;2023-07-31T13:39:32;26.00;99.90
909;DHT22;441;51.192;6.788;2023-07-31T13:41:59;26.00;99.90
909;DHT22;441;51.192;6.788;2023-07-31T13:44:26;26.10;99.90
909;DHT22;441;51.192;6.788;2023-07-31T13:46:55;26.10;99.90
909;DHT22;441;51.192;6.788;2023-07-31T13:49:22;26.10;99.90
909;DHT22;441;51.192;6.788;2023-07-31T13:51:49;26.00;99.90
909;DHT22;441;51.192;6.788;2023-07-31T13:54:16;26.00;99.90
909;DHT22;441;51.192;6.788;2023-07-31T13:56:43;26.10;99.80
909;DHT22;441;51.192;6.788;2023-07-31T13:59:10;26.10;99.60
909;DHT22;441;51.192;6.788;2023-07-31T14:01:37;26.30;99.50
909;DHT22;441;51.192;6.788;2023-07-31T14:04:05;26.20;99.30
909;DHT22;441;51.192;6.788;2023-07-31T14:06:32;26.20;99.40
909;DHT22;441;51.192;6.788;2023-07-31T14:08:59;26.10;99.30
909;DHT22;441;51.192;6.788;2023-07-31T14:11:26;26.30;99.20
909;DHT22;441;51.192;6.788;2023-07-31T14:13:53;26.30;98.90
909;DHT22;441;51.192;6.788;2023-07-31T14:16:20;26.30;98.70
909;DHT22;441;51.192;6.788;2023-07-31T14:18:47;26.30;98.50
909;DHT22;441;51.192;6.788;2023-07-31T14:21:16;26.30;98.50
909;DHT22;441;51.192;6.788;2023-07-31T14:23:45;26.30;98.60
909;DHT22;441;51.192;6.788;2023-07-31T14:26:11;26.20;98.40
909;DHT22;441;51.192;6.788;2023-07-31T14:28:38;26.20;98.30
909;DHT22;441;51.192;6.788;2023-07-31T14:31:05;26.20;98.10
909;DHT22;441;51.192;6.788;2023-07-31T14:33:32;26.20;98.10
909;DHT22;441;51.192;6.788;2023-07-31T14:35:59;26.30;98.30
909;DHT22;441;51.192;6.788;2023-07-31T14:38:27;26.30;98.00
909;DHT22;441;51.192;6.788;2023-07-31T14:40:54;26.40;98.00
909;DHT22;441;51.192;6.788;2023-07-31T14:43:21;26.30;97.60
909;DHT22;441;51.192;6.788;2023-07-31T14:45:48;26.30;97.70
909;DHT22;441;51.192;6.788;2023-07-31T14:48:15;26.30;97.50
909;DHT22;441;51.192;6.788;2023-07-31T14:50:42;26.20;97.60
909;DHT22;441;51.192;6.788;2023-07-31T14:53:09;26.30;97.60
909;DHT22;441;51.192;6.788;2023-07-31T14:55:37;26.30;97.80
909;DHT22;441;51.192;6.788;2023-07-31T14:58:04;26.40;97.60
909;DHT22;441;51.192;6.788;2023-07-31T15:00:31;26.30;97.30
909;DHT22;441;51.192;6.788;2023-07-31T15:02:57;26.30;97.40
909;DHT22;441;51.192;6.788;2023-07-31T15:05:24;26.30;97.50
909;DHT22;441;51.192;6.788;2023-07-31T15:07:51;26.30;97.50
909;DHT22;441;51.192;6.788;2023-07-31T15:10:18;26.30;97.50
909;DHT22;441;51.192;6.788;2023-07-31T15:12:46;26.30;97.20
909;DHT22;441;51.192;6.788;2023-07-31T15:15:14;26.40;97.10
909;DHT22;441;51.192;6.788;2023-07-31T15:17:41;26.30;97.00
909;DHT22;441;51.192;6.788;2023-07-31T15:20:10;26.40;96.80
909;DHT22;441;51.192;6.788;2023-07-31T15:22:37;26.40;96.90
909;DHT22;441;51.192;6.788;2023-07-31T15:25:05;26.40;96.80
909;DHT22;441;51.192;6.788;2023-07-31T15:27:32;26.40;96.60
909;DHT22;441;51.192;6.788;2023-07-31T15:30:00;26.40;96.40
909;DHT22;441;51.192;6.788;2023-07-31T15:32:28;26.40;96.20
909;DHT22;441;51.192;6.788;2023-07-31T15:34:55;26.40;96.30
909;DHT22;441;51.192;6.788;2023-07-31T15:37:22;26.50;96.20
909;DHT22;441;51.192;6.788;2023-07-31T15:39:49;26.50;96.00
909;DHT22;441;51.192;6.788;2023-07-31T15:42:16;26.40;95.90
909;DHT22;441;51.192;6.788;2023-07-31T15:44:42;26.40;95.90
909;DHT22;441;51.192;6.788;2023-07-31T15:47:11;26.40;96.10
909;DHT22;441;51.192;6.788;2023-07-31T15:49:38;26.40;95.80
909;DHT22;441;51.192;6.788;2023-07-31T15:52:05;26.30;95.80
909;DHT22;441;51.192;6.788;2023-07-31T15:54:33;26.40;95.60
909;DHT22;441;51.192;6.788;2023-07-31T15:56:59;26.40;95.40
909;DHT22;441;51.192;6.788;2023-07-31T15:59:26;26.50;95.50
909;DHT22;441;51.192;6.788;2023-07-31T16:01:53;26.40;95.30
909;DHT22;441;51.192;6.788;2023-07-31T16:04:21;26.40;95.60
909;DHT22;441;51.192;6.788;2023-07-31T16:06:48;26.50;95.50
909;DHT22;441;51.192;6.788;2023-07-31T16:09:15;26.40;95.40
909;DHT22;441;51.192;6.788;2023-07-31T16:11:42;26.50;95.10
909;DHT22;441;51.192;6.788;2023-07-31T16:14:09;26.50;94.90
909;DHT22;441;51.192;6.788;2023-07-31T16:16:36;26.40;95.00
909;DHT22;441;51.192;6.788;2023-07-31T16:19:03;26.40;95.10
909;DHT22;441;51.192;6.788;2023-07-31T16:21:31;26.40;95.10
909;DHT22;441;51.192;6.788;2023-07-31T16:23:58;26.50;95.10
909;DHT22;441;51.192;6.788;2023-07-31T16:26:25;26.40;95.10
909;DHT22;441;51.192;6.788;2023-07-31T16:28:52;26.50;94.90
909;DHT22;441;51.192;6.788;2023-07-31T16:31:18;26.50;94.90
909;DHT22;441;51.192;6.788;2023-07-31T16:33:45;26.50;94.80
909;DHT22;441;51.192;6.788;2023-07-31T16:36:12;26.50;94.80
909;DHT22;441;51.192;6.788;2023-07-31T16:38:41;26.40;95.00
909;DHT22;441;51.192;6.788;2023-07-31T16:41:08;26.50;94.90
909;DHT22;441;51.192;6.788;2023-07-31T16:43:35;26.60;94.80
909;DHT22;441;51.192;6.788;2023-07-31T16:46:03;26.60;94.60
909;DHT22;441;51.192;6.788;2023-07-31T16:48:30;26.60;94.60
909;DHT22;441;51.192;6.788;2023-07-31T16:50:57;26.60;94.90
909;DHT22;441;51.192;6.788;2023-07-31T16:53:24;26.60;94.90